Погода Рогна 2 недели

Гомельская область, Белоруссия

20 июля-01 августа
  • 20июля
    Сегодня
    +15°
    +26°
    Облачно с прояснениями
    ВремяПогодаТемператураВлажностьДавлениеВетер, м/сВероятность осадков
    00:00Ясно и безоблачно+18°C71 %751 мм0.8 м/с2 %
    03:00Ясно и безоблачно+17°C82 %750 мм0.5 м/с2 %
    06:00Ясно и безоблачно+15°C81 %750 мм0.7 м/с2 %
    09:00Ясно и безоблачно+20°C60 %749 мм1.0 м/с2 %
    12:00Ясно и безоблачно+23°C43 %749 мм1.7 м/с2 %
    15:00Облачно с прояснениями+25°C39 %748 мм1.8 м/с5 %
    18:00Ясно и безоблачно+24°C37 %747 мм1.9 м/с3 %
    21:00Практически безоблачно+21°C51 %747 мм0.5 м/с2 %
  • 21июля
    Воскресенье
    +16°
    +27°
    Облачно с прояснениями
    ВремяПогодаТемператураВлажностьДавлениеВетер, м/сВероятность осадков
    00:00Ясно и безоблачно+18°C70 %748 мм0.6 м/с2 %
    03:00Ясно и безоблачно+16°C81 %748 мм0.2 м/с2 %
    06:00Ясно и безоблачно+15°C86 %747 мм0.2 м/с2 %
    09:00Ясно и безоблачно+21°C58 %748 мм0.3 м/с2 %
    12:00Облачно с прояснениями+24°C45 %748 мм0.8 м/с2 %
    15:00Облачно с прояснениями+26°C42 %747 мм0.9 м/с9 %
    18:00Практически безоблачно+26°C39 %746 мм1.5 м/с6 %
    21:00Ясно и безоблачно+22°C58 %746 мм0.5 м/с3 %
  • 22июля
    Понедельник
    +16°
    +28°
    Практически безоблачно
    ВремяПогодаТемператураВлажностьДавлениеВетер, м/сВероятность осадков
    00:00Ясно и безоблачно+19°C67 %746 мм0.6 м/с2 %
    03:00Ясно и безоблачно+17°C72 %747 мм0.6 м/с3 %
    06:00Небольшая облачность+16°C81 %747 мм0.5 м/с5 %
    09:00Практически безоблачно+21°C67 %747 мм0.8 м/с7 %
    12:00Практически безоблачно+25°C49 %747 мм0.8 м/с20 %
    15:00Практически безоблачно+26°C47 %747 мм1.0 м/с30 %
    18:00Небольшая облачность и лёгкий дождик+24°C45 %747 мм1.9 м/с53 %
    21:00Ясно и безоблачно+20°C70 %748 мм0.3 м/с24 %
  • 23июля
    Вторник
    +17°
    +28°
    Ясно и безоблачно
    ВремяПогодаТемператураВлажностьДавлениеВетер, м/сВероятность осадков
    00:00Ясно и безоблачно+18°C88 %748 мм0.4 м/с4 %
    03:00Ясно и безоблачно+17°C94 %748 мм0.3 м/с4 %
    06:00Ясно и безоблачно+16°C93 %748 мм0.4 м/с10 %
    09:00Ясно и безоблачно+22°C62 %749 мм0.8 м/с6 %
    12:00Ясно и безоблачно+25°C48 %749 мм1.4 м/с38 %
    15:00Ясно и безоблачно+27°C43 %748 мм1.5 м/с38 %
    18:00Ясно и безоблачно+26°C44 %747 мм1.7 м/с44 %
    21:00Небольшая облачность+23°C60 %748 мм0.7 м/с25 %
Мы используем cookies
Соглашаюсь